sensor_id;sensor_type;location;lat;lon;timestamp;temperature;humidity
38592;DHT22;24356;48.460;11.450;2023-05-02T00:00:32;9.00;86.30
38592;DHT22;24356;48.460;11.450;2023-05-02T00:02:59;9.00;85.80
38592;DHT22;24356;48.460;11.450;2023-05-02T00:05:25;9.00;85.80
38592;DHT22;24356;48.460;11.450;2023-05-02T00:07:51;9.00;85.90
38592;DHT22;24356;48.460;11.450;2023-05-02T00:10:17;8.90;85.70
38592;DHT22;24356;48.460;11.450;2023-05-02T00:12:43;8.90;86.00
38592;DHT22;24356;48.460;11.450;2023-05-02T00:15:09;8.90;85.80
38592;DHT22;24356;48.460;11.450;2023-05-02T00:17:35;8.90;86.00
38592;DHT22;24356;48.460;11.450;2023-05-02T00:20:01;8.80;85.90
38592;DHT22;24356;48.460;11.450;2023-05-02T00:22:28;8.80;86.30
38592;DHT22;24356;48.460;11.450;2023-05-02T00:24:56;8.80;86.20
38592;DHT22;24356;48.460;11.450;2023-05-02T00:27:22;8.80;86.00
38592;DHT22;24356;48.460;11.450;2023-05-02T00:29:47;8.70;86.00
38592;DHT22;24356;48.460;11.450;2023-05-02T00:32:13;8.70;86.60
38592;DHT22;24356;48.460;11.450;2023-05-02T00:34:39;8.70;86.50
38592;DHT22;24356;48.460;11.450;2023-05-02T00:37:05;8.70;86.30
38592;DHT22;24356;48.460;11.450;2023-05-02T00:39:35;8.70;86.50
38592;DHT22;24356;48.460;11.450;2023-05-02T00:42:00;8.70;86.50
38592;DHT22;24356;48.460;11.450;2023-05-02T00:44:27;8.60;86.30
38592;DHT22;24356;48.460;11.450;2023-05-02T00:46:54;8.60;86.80
38592;DHT22;24356;48.460;11.450;2023-05-02T00:49:19;8.60;87.10
38592;DHT22;24356;48.460;11.450;2023-05-02T00:51:45;8.60;86.60
38592;DHT22;24356;48.460;11.450;2023-05-02T00:54:12;8.60;86.60
38592;DHT22;24356;48.460;11.450;2023-05-02T00:56:38;8.50;86.70
38592;DHT22;24356;48.460;11.450;2023-05-02T00:59:04;8.50;86.40
38592;DHT22;24356;48.460;11.450;2023-05-02T01:12:56;8.40;86.60
38592;DHT22;24356;48.460;11.450;2023-05-02T01:15:24;8.40;86.50
38592;DHT22;24356;48.460;11.450;2023-05-02T01:17:54;8.40;86.40
38592;DHT22;24356;48.460;11.450;2023-05-02T01:20:23;8.40;86.60
38592;DHT22;24356;48.460;11.450;2023-05-02T01:22:51;8.40;86.70
38592;DHT22;24356;48.460;11.450;2023-05-02T01:25:25;8.40;86.60
38592;DHT22;24356;48.460;11.450;2023-05-02T01:31:05;8.30;86.70
38592;DHT22;24356;48.460;11.450;2023-05-02T01:33:34;8.30;86.70
38592;DHT22;24356;48.460;11.450;2023-05-02T01:36:02;8.30;86.40
38592;DHT22;24356;48.460;11.450;2023-05-02T01:38:28;8.30;86.50
38592;DHT22;24356;48.460;11.450;2023-05-02T01:40:56;8.30;86.50
38592;DHT22;24356;48.460;11.450;2023-05-02T01:43:28;8.30;86.40
38592;DHT22;24356;48.460;11.450;2023-05-02T01:45:56;8.30;86.50
38592;DHT22;24356;48.460;11.450;2023-05-02T01:48:24;8.30;86.30
38592;DHT22;24356;48.460;11.450;2023-05-02T01:50:54;8.20;86.40
38592;DHT22;24356;48.460;11.450;2023-05-02T01:53:23;8.20;86.40
38592;DHT22;24356;48.460;11.450;2023-05-02T01:55:49;8.20;86.60
38592;DHT22;24356;48.460;11.450;2023-05-02T01:58:18;8.20;86.50
38592;DHT22;24356;48.460;11.450;2023-05-02T02:00:45;8.20;86.40
38592;DHT22;24356;48.460;11.450;2023-05-02T02:03:12;8.20;86.60
38592;DHT22;24356;48.460;11.450;2023-05-02T02:05:40;8.20;86.40
38592;DHT22;24356;48.460;11.450;2023-05-02T02:08:07;8.20;86.50
38592;DHT22;24356;48.460;11.450;2023-05-02T02:10:40;8.10;86.30
38592;DHT22;24356;48.460;11.450;2023-05-02T02:13:23;8.10;86.40
38592;DHT22;24356;48.460;11.450;2023-05-02T02:15:54;8.10;86.30
38592;DHT22;24356;48.460;11.450;2023-05-02T02:18:24;8.10;86.40
38592;DHT22;24356;48.460;11.450;2023-05-02T02:20:53;8.10;86.30
38592;DHT22;24356;48.460;11.450;2023-05-02T02:23:22;8.10;86.40
38592;DHT22;24356;48.460;11.450;2023-05-02T02:25:51;8.10;86.30
38592;DHT22;24356;48.460;11.450;2023-05-02T02:28:18;8.10;86.50
38592;DHT22;24356;48.460;11.450;2023-05-02T02:30:44;8.10;86.40
38592;DHT22;24356;48.460;11.450;2023-05-02T02:33:10;8.10;86.70
38592;DHT22;24356;48.460;11.450;2023-05-02T02:35:45;8.10;86.40
38592;DHT22;24356;48.460;11.450;2023-05-02T02:38:30;8.00;86.30
38592;DHT22;24356;48.460;11.450;2023-05-02T02:41:15;8.00;86.20
38592;DHT22;24356;48.460;11.450;2023-05-02T02:49:21;8.00;86.30
38592;DHT22;24356;48.460;11.450;2023-05-02T02:51:51;8.00;86.30
38592;DHT22;24356;48.460;11.450;2023-05-02T03:00:07;8.00;86.40
38592;DHT22;24356;48.460;11.450;2023-05-02T03:02:36;8.00;86.30
38592;DHT22;24356;48.460;11.450;2023-05-02T03:05:04;8.00;86.30
38592;DHT22;24356;48.460;11.450;2023-05-02T03:07:32;8.00;86.30
38592;DHT22;24356;48.460;11.450;2023-05-02T03:09:57;8.00;86.40
38592;DHT22;24356;48.460;11.450;2023-05-02T03:12:24;7.90;86.80
38592;DHT22;24356;48.460;11.450;2023-05-02T03:14:50;7.90;86.50
38592;DHT22;24356;48.460;11.450;2023-05-02T03:17:15;7.90;86.40
38592;DHT22;24356;48.460;11.450;2023-05-02T03:19:41;7.90;86.50
38592;DHT22;24356;48.460;11.450;2023-05-02T03:22:06;7.90;86.60
38592;DHT22;24356;48.460;11.450;2023-05-02T03:24:32;7.90;86.60
38592;DHT22;24356;48.460;11.450;2023-05-02T03:26:58;7.90;86.50
38592;DHT22;24356;48.460;11.450;2023-05-02T03:29:25;7.90;86.40
38592;DHT22;24356;48.460;11.450;2023-05-02T03:31:51;7.90;86.30
38592;DHT22;24356;48.460;11.450;2023-05-02T03:34:16;7.90;86.30
38592;DHT22;24356;48.460;11.450;2023-05-02T03:36:44;7.80;86.40
38592;DHT22;24356;48.460;11.450;2023-05-02T03:42:22;7.80;86.40
38592;DHT22;24356;48.460;11.450;2023-05-02T03:44:51;7.80;86.30
38592;DHT22;24356;48.460;11.450;2023-05-02T03:47:17;7.80;86.30
38592;DHT22;24356;48.460;11.450;2023-05-02T03:49:42;7.80;86.50
38592;DHT22;24356;48.460;11.450;2023-05-02T03:52:08;7.80;86.40
38592;DHT22;24356;48.460;11.450;2023-05-02T03:54:33;7.70;86.40
38592;DHT22;24356;48.460;11.450;2023-05-02T03:56:59;7.80;86.40
38592;DHT22;24356;48.460;11.450;2023-05-02T03:59:25;7.70;86.40
38592;DHT22;24356;48.460;11.450;2023-05-02T04:01:51;7.70;86.40
38592;DHT22;24356;48.460;11.450;2023-05-02T04:04:17;7.70;86.60
38592;DHT22;24356;48.460;11.450;2023-05-02T04:06:42;7.70;86.50
38592;DHT22;24356;48.460;11.450;2023-05-02T04:09:08;7.70;86.50
38592;DHT22;24356;48.460;11.450;2023-05-02T04:11:34;7.70;86.40
38592;DHT22;24356;48.460;11.450;2023-05-02T04:13:59;7.70;86.40
38592;DHT22;24356;48.460;11.450;2023-05-02T04:16:25;7.70;86.40
38592;DHT22;24356;48.460;11.450;2023-05-02T04:18:51;7.70;86.40
38592;DHT22;24356;48.460;11.450;2023-05-02T04:21:16;7.70;86.60
38592;DHT22;24356;48.460;11.450;2023-05-02T04:23:43;7.70;86.40
38592;DHT22;24356;48.460;11.450;2023-05-02T04:26:09;7.70;86.50
38592;DHT22;24356;48.460;11.450;2023-05-02T04:28:34;7.70;86.50
38592;DHT22;24356;48.460;11.450;2023-05-02T04:31:01;7.70;87.00
38592;DHT22;24356;48.460;11.450;2023-05-02T04:33:27;7.70;86.50
38592;DHT22;24356;48.460;11.450;2023-05-02T04:35:53;7.70;87.00
38592;DHT22;24356;48.460;11.450;2023-05-02T04:38:19;7.70;87.20
38592;DHT22;24356;48.460;11.450;2023-05-02T04:40:44;7.70;87.20
38592;DHT22;24356;48.460;11.450;2023-05-02T04:43:10;7.70;86.80
38592;DHT22;24356;48.460;11.450;2023-05-02T04:45:36;7.80;87.20
38592;DHT22;24356;48.460;11.450;2023-05-02T04:48:02;7.80;86.70
38592;DHT22;24356;48.460;11.450;2023-05-02T04:50:28;7.80;86.80
38592;DHT22;24356;48.460;11.450;2023-05-02T04:52:54;7.80;87.10
38592;DHT22;24356;48.460;11.450;2023-05-02T04:55:20;7.90;87.40
38592;DHT22;24356;48.460;11.450;2023-05-02T04:57:45;7.90;86.40
38592;DHT22;24356;48.460;11.450;2023-05-02T05:00:11;7.90;86.10
38592;DHT22;24356;48.460;11.450;2023-05-02T05:02:37;7.90;86.10
38592;DHT22;24356;48.460;11.450;2023-05-02T05:05:04;8.00;86.90
38592;DHT22;24356;48.460;11.450;2023-05-02T05:07:29;8.00;85.90
38592;DHT22;24356;48.460;11.450;2023-05-02T05:09:55;8.10;86.10
38592;DHT22;24356;48.460;11.450;2023-05-02T05:12:21;8.10;86.30
38592;DHT22;24356;48.460;11.450;2023-05-02T05:14:46;8.10;86.20
38592;DHT22;24356;48.460;11.450;2023-05-02T05:17:12;8.20;86.40
38592;DHT22;24356;48.460;11.450;2023-05-02T05:19:38;8.20;86.20
38592;DHT22;24356;48.460;11.450;2023-05-02T05:22:04;8.30;86.10
38592;DHT22;24356;48.460;11.450;2023-05-02T05:24:29;8.30;86.50
38592;DHT22;24356;48.460;11.450;2023-05-02T05:26:55;8.40;86.50
38592;DHT22;24356;48.460;11.450;2023-05-02T05:29:21;8.40;86.40
38592;DHT22;24356;48.460;11.450;2023-05-02T05:31:46;8.50;86.80
38592;DHT22;24356;48.460;11.450;2023-05-02T05:34:13;8.50;86.70
38592;DHT22;24356;48.460;11.450;2023-05-02T05:36:39;8.60;86.70
38592;DHT22;24356;48.460;11.450;2023-05-02T05:39:05;8.60;86.40
38592;DHT22;24356;48.460;11.450;2023-05-02T05:41:31;8.70;86.20
38592;DHT22;24356;48.460;11.450;2023-05-02T05:43:58;8.80;86.50
38592;DHT22;24356;48.460;11.450;2023-05-02T05:46:24;8.80;86.60
38592;DHT22;24356;48.460;11.450;2023-05-02T05:48:49;8.90;86.70
38592;DHT22;24356;48.460;11.450;2023-05-02T05:51:16;8.90;86.80
38592;DHT22;24356;48.460;11.450;2023-05-02T05:53:43;9.00;86.70
38592;DHT22;24356;48.460;11.450;2023-05-02T05:56:12;9.10;86.30
38592;DHT22;24356;48.460;11.450;2023-05-02T05:58:38;9.10;86.30
38592;DHT22;24356;48.460;11.450;2023-05-02T06:01:04;9.20;86.30
38592;DHT22;24356;48.460;11.450;2023-05-02T06:03:30;9.20;86.30
38592;DHT22;24356;48.460;11.450;2023-05-02T06:05:56;9.20;86.30
38592;DHT22;24356;48.460;11.450;2023-05-02T06:08:22;9.30;86.20
38592;DHT22;24356;48.460;11.450;2023-05-02T06:10:47;9.30;86.60
38592;DHT22;24356;48.460;11.450;2023-05-02T06:13:13;9.40;86.40
38592;DHT22;24356;48.460;11.450;2023-05-02T06:15:38;9.50;86.30
38592;DHT22;24356;48.460;11.450;2023-05-02T06:18:04;9.50;86.10
38592;DHT22;24356;48.460;11.450;2023-05-02T06:20:30;9.60;85.80
38592;DHT22;24356;48.460;11.450;2023-05-02T06:22:56;9.70;85.70
38592;DHT22;24356;48.460;11.450;2023-05-02T06:25:21;9.80;86.00
38592;DHT22;24356;48.460;11.450;2023-05-02T06:27:47;9.90;85.90
38592;DHT22;24356;48.460;11.450;2023-05-02T06:30:12;10.00;85.80
38592;DHT22;24356;48.460;11.450;2023-05-02T06:32:38;10.20;85.70
38592;DHT22;24356;48.460;11.450;2023-05-02T06:35:04;10.40;86.10
38592;DHT22;24356;48.460;11.450;2023-05-02T06:37:33;10.50;85.50
38592;DHT22;24356;48.460;11.450;2023-05-02T06:40:00;10.60;85.30
38592;DHT22;24356;48.460;11.450;2023-05-02T06:42:25;10.80;85.00
38592;DHT22;24356;48.460;11.450;2023-05-02T06:44:51;10.90;84.70
38592;DHT22;24356;48.460;11.450;2023-05-02T06:47:18;11.10;84.30
38592;DHT22;24356;48.460;11.450;2023-05-02T06:49:44;11.20;84.30
38592;DHT22;24356;48.460;11.450;2023-05-02T06:52:09;11.30;83.80
38592;DHT22;24356;48.460;11.450;2023-05-02T06:54:35;11.40;83.70
38592;DHT22;24356;48.460;11.450;2023-05-02T06:57:03;11.50;84.00
38592;DHT22;24356;48.460;11.450;2023-05-02T06:59:29;11.60;84.20
38592;DHT22;24356;48.460;11.450;2023-05-02T07:01:54;11.70;83.90
38592;DHT22;24356;48.460;11.450;2023-05-02T07:04:20;11.90;83.60
38592;DHT22;24356;48.460;11.450;2023-05-02T07:06:46;12.00;83.70
38592;DHT22;24356;48.460;11.450;2023-05-02T07:09:11;12.20;83.30
38592;DHT22;24356;48.460;11.450;2023-05-02T07:11:37;12.30;83.10
38592;DHT22;24356;48.460;11.450;2023-05-02T07:14:02;12.50;82.80
38592;DHT22;24356;48.460;11.450;2023-05-02T07:16:28;12.60;82.80
38592;DHT22;24356;48.460;11.450;2023-05-02T07:18:53;12.60;82.70
38592;DHT22;24356;48.460;11.450;2023-05-02T07:21:20;12.70;82.70
38592;DHT22;24356;48.460;11.450;2023-05-02T07:23:45;12.80;82.70
38592;DHT22;24356;48.460;11.450;2023-05-02T07:26:11;12.90;83.10
38592;DHT22;24356;48.460;11.450;2023-05-02T07:28:36;13.00;82.90
38592;DHT22;24356;48.460;11.450;2023-05-02T07:31:02;13.10;83.30
38592;DHT22;24356;48.460;11.450;2023-05-02T07:33:28;13.20;82.60
38592;DHT22;24356;48.460;11.450;2023-05-02T07:35:54;13.30;82.50
38592;DHT22;24356;48.460;11.450;2023-05-02T07:38:20;13.40;82.40
38592;DHT22;24356;48.460;11.450;2023-05-02T07:40:46;13.60;82.70
38592;DHT22;24356;48.460;11.450;2023-05-02T07:43:12;13.70;82.60
38592;DHT22;24356;48.460;11.450;2023-05-02T07:45:38;13.80;82.20
38592;DHT22;24356;48.460;11.450;2023-05-02T07:48:05;14.00;82.20
38592;DHT22;24356;48.460;11.450;2023-05-02T07:50:31;14.10;81.90
38592;DHT22;24356;48.460;11.450;2023-05-02T07:52:56;14.20;81.50
38592;DHT22;24356;48.460;11.450;2023-05-02T07:55:22;14.30;81.40
38592;DHT22;24356;48.460;11.450;2023-05-02T07:57:51;14.40;81.70
38592;DHT22;24356;48.460;11.450;2023-05-02T08:00:16;14.50;81.50
38592;DHT22;24356;48.460;11.450;2023-05-02T08:02:42;14.60;81.40
38592;DHT22;24356;48.460;11.450;2023-05-02T08:05:09;14.80;81.30
38592;DHT22;24356;48.460;11.450;2023-05-02T08:07:35;14.90;80.80
38592;DHT22;24356;48.460;11.450;2023-05-02T08:10:00;15.00;80.60
38592;DHT22;24356;48.460;11.450;2023-05-02T08:12:26;15.10;80.60
38592;DHT22;24356;48.460;11.450;2023-05-02T08:14:52;15.20;80.30
38592;DHT22;24356;48.460;11.450;2023-05-02T08:17:18;15.30;80.20
38592;DHT22;24356;48.460;11.450;2023-05-02T08:19:45;15.40;79.70
38592;DHT22;24356;48.460;11.450;2023-05-02T08:22:10;15.40;79.90
38592;DHT22;24356;48.460;11.450;2023-05-02T08:24:36;15.50;79.50
38592;DHT22;24356;48.460;11.450;2023-05-02T08:27:01;15.50;80.00
38592;DHT22;24356;48.460;11.450;2023-05-02T08:29:29;15.60;79.50
38592;DHT22;24356;48.460;11.450;2023-05-02T08:31:54;15.60;79.40
38592;DHT22;24356;48.460;11.450;2023-05-02T08:34:20;15.70;79.00
38592;DHT22;24356;48.460;11.450;2023-05-02T08:36:46;15.80;79.10
38592;DHT22;24356;48.460;11.450;2023-05-02T08:39:12;15.80;79.20
38592;DHT22;24356;48.460;11.450;2023-05-02T08:41:38;15.90;78.60
38592;DHT22;24356;48.460;11.450;2023-05-02T08:44:05;15.90;78.80
38592;DHT22;24356;48.460;11.450;2023-05-02T08:46:34;15.90;78.60
38592;DHT22;24356;48.460;11.450;2023-05-02T08:49:01;16.00;78.30
38592;DHT22;24356;48.460;11.450;2023-05-02T08:51:28;16.00;78.40
38592;DHT22;24356;48.460;11.450;2023-05-02T08:53:55;16.00;78.20
38592;DHT22;24356;48.460;11.450;2023-05-02T08:56:21;16.00;78.20
38592;DHT22;24356;48.460;11.450;2023-05-02T08:58:47;16.10;78.30
38592;DHT22;24356;48.460;11.450;2023-05-02T09:01:15;16.10;77.90
38592;DHT22;24356;48.460;11.450;2023-05-02T09:03:43;16.10;77.60
38592;DHT22;24356;48.460;11.450;2023-05-02T09:06:13;16.10;77.50
38592;DHT22;24356;48.460;11.450;2023-05-02T09:08:41;16.00;77.50
38592;DHT22;24356;48.460;11.450;2023-05-02T09:11:08;16.00;77.40
38592;DHT22;24356;48.460;11.450;2023-05-02T09:13:45;15.90;77.20
38592;DHT22;24356;48.460;11.450;2023-05-02T09:16:22;15.90;77.30
38592;DHT22;24356;48.460;11.450;2023-05-02T09:18:49;15.80;77.30
38592;DHT22;24356;48.460;11.450;2023-05-02T09:21:17;15.80;77.50
38592;DHT22;24356;48.460;11.450;2023-05-02T09:23:56;15.70;77.30
38592;DHT22;24356;48.460;11.450;2023-05-02T09:26:27;15.70;77.30
38592;DHT22;24356;48.460;11.450;2023-05-02T09:28:58;15.60;77.40
38592;DHT22;24356;48.460;11.450;2023-05-02T09:31:28;15.60;77.60
38592;DHT22;24356;48.460;11.450;2023-05-02T09:34:14;15.60;77.70
38592;DHT22;24356;48.460;11.450;2023-05-02T09:36:42;15.60;77.80
38592;DHT22;24356;48.460;11.450;2023-05-02T09:39:09;15.60;77.70
38592;DHT22;24356;48.460;11.450;2023-05-02T09:41:43;15.60;77.90
38592;DHT22;24356;48.460;11.450;2023-05-02T09:44:10;15.60;77.80
38592;DHT22;24356;48.460;11.450;2023-05-02T09:46:48;15.60;77.70
38592;DHT22;24356;48.460;11.450;2023-05-02T09:49:14;15.70;77.90
38592;DHT22;24356;48.460;11.450;2023-05-02T09:51:45;15.80;77.90
38592;DHT22;24356;48.460;11.450;2023-05-02T09:54:12;15.80;77.90
38592;DHT22;24356;48.460;11.450;2023-05-02T09:56:54;15.90;77.80
38592;DHT22;24356;48.460;11.450;2023-05-02T09:59:23;16.00;77.90
38592;DHT22;24356;48.460;11.450;2023-05-02T10:01:57;16.00;78.10
38592;DHT22;24356;48.460;11.450;2023-05-02T10:04:24;16.10;77.80
38592;DHT22;24356;48.460;11.450;2023-05-02T10:06:51;16.10;77.90
38592;DHT22;24356;48.460;11.450;2023-05-02T10:09:18;16.10;77.60
38592;DHT22;24356;48.460;11.450;2023-05-02T10:11:45;16.20;77.50
38592;DHT22;24356;48.460;11.450;2023-05-02T10:14:11;16.20;77.50
38592;DHT22;24356;48.460;11.450;2023-05-02T10:19:32;16.30;77.70
38592;DHT22;24356;48.460;11.450;2023-05-02T10:22:02;16.30;77.50
38592;DHT22;24356;48.460;11.450;2023-05-02T10:24:32;16.30;77.20
38592;DHT22;24356;48.460;11.450;2023-05-02T10:26:58;16.30;77.30
38592;DHT22;24356;48.460;11.450;2023-05-02T10:29:28;16.30;77.00
38592;DHT22;24356;48.460;11.450;2023-05-02T10:31:54;16.30;77.10
38592;DHT22;24356;48.460;11.450;2023-05-02T10:34:21;16.30;77.20
38592;DHT22;24356;48.460;11.450;2023-05-02T10:36:47;16.30;77.70
38592;DHT22;24356;48.460;11.450;2023-05-02T10:39:13;16.30;77.60
38592;DHT22;24356;48.460;11.450;2023-05-02T10:41:40;16.30;77.70
38592;DHT22;24356;48.460;11.450;2023-05-02T10:44:06;16.30;77.40
38592;DHT22;24356;48.460;11.450;2023-05-02T10:49:09;16.40;77.70
38592;DHT22;24356;48.460;11.450;2023-05-02T10:51:37;16.50;77.90
38592;DHT22;24356;48.460;11.450;2023-05-02T10:54:18;16.70;78.10
38592;DHT22;24356;48.460;11.450;2023-05-02T10:59:48;17.10;77.90
38592;DHT22;24356;48.460;11.450;2023-05-02T11:05:03;17.60;77.80
38592;DHT22;24356;48.460;11.450;2023-05-02T11:07:30;17.80;77.50
38592;DHT22;24356;48.460;11.450;2023-05-02T11:12:50;18.40;76.60
38592;DHT22;24356;48.460;11.450;2023-05-02T11:18:12;18.70;75.30
38592;DHT22;24356;48.460;11.450;2023-05-02T11:20:44;18.70;74.70
38592;DHT22;24356;48.460;11.450;2023-05-02T11:25:43;18.70;74.70
38592;DHT22;24356;48.460;11.450;2023-05-02T11:33:56;18.40;74.30
38592;DHT22;24356;48.460;11.450;2023-05-02T11:36:34;18.40;74.20
38592;DHT22;24356;48.460;11.450;2023-05-02T11:39:03;18.30;74.50
38592;DHT22;24356;48.460;11.450;2023-05-02T11:41:39;18.30;74.40
38592;DHT22;24356;48.460;11.450;2023-05-02T11:44:04;18.30;75.00
38592;DHT22;24356;48.460;11.450;2023-05-02T11:46:35;18.40;75.50
38592;DHT22;24356;48.460;11.450;2023-05-02T11:49:02;18.60;75.50
38592;DHT22;24356;48.460;11.450;2023-05-02T11:51:28;18.80;75.60
38592;DHT22;24356;48.460;11.450;2023-05-02T11:53:53;19.00;76.40
38592;DHT22;24356;48.460;11.450;2023-05-02T11:56:25;19.20;75.60
38592;DHT22;24356;48.460;11.450;2023-05-02T11:59:01;19.40;75.20
38592;DHT22;24356;48.460;11.450;2023-05-02T12:01:28;19.50;73.90
38592;DHT22;24356;48.460;11.450;2023-05-02T12:04:04;19.50;73.10
38592;DHT22;24356;48.460;11.450;2023-05-02T12:06:32;19.50;72.60
38592;DHT22;24356;48.460;11.450;2023-05-02T12:09:13;19.30;72.60
38592;DHT22;24356;48.460;11.450;2023-05-02T12:11:43;19.10;72.80
38592;DHT22;24356;48.460;11.450;2023-05-02T12:14:10;19.00;72.40
38592;DHT22;24356;48.460;11.450;2023-05-02T12:16:36;18.80;72.60
38592;DHT22;24356;48.460;11.450;2023-05-02T12:19:02;18.60;72.60
38592;DHT22;24356;48.460;11.450;2023-05-02T12:21:28;18.50;73.00
38592;DHT22;24356;48.460;11.450;2023-05-02T12:23:55;18.40;73.20
38592;DHT22;24356;48.460;11.450;2023-05-02T12:26:23;18.30;73.40
38592;DHT22;24356;48.460;11.450;2023-05-02T12:28:57;18.20;73.70
38592;DHT22;24356;48.460;11.450;2023-05-02T12:31:24;18.20;73.90
38592;DHT22;24356;48.460;11.450;2023-05-02T12:33:50;18.10;74.10
38592;DHT22;24356;48.460;11.450;2023-05-02T12:36:19;18.10;74.40
38592;DHT22;24356;48.460;11.450;2023-05-02T12:38:56;18.20;74.50
38592;DHT22;24356;48.460;11.450;2023-05-02T12:41:37;18.30;74.50
38592;DHT22;24356;48.460;11.450;2023-05-02T12:44:04;18.40;74.60
38592;DHT22;24356;48.460;11.450;2023-05-02T12:46:32;18.40;74.40
38592;DHT22;24356;48.460;11.450;2023-05-02T12:49:05;18.50;74.30
38592;DHT22;24356;48.460;11.450;2023-05-02T12:51:34;18.60;74.20
38592;DHT22;24356;48.460;11.450;2023-05-02T12:54:01;18.60;74.00
38592;DHT22;24356;48.460;11.450;2023-05-02T12:56:51;18.60;73.90
38592;DHT22;24356;48.460;11.450;2023-05-02T12:59:30;18.70;74.00
38592;DHT22;24356;48.460;11.450;2023-05-02T13:01:56;18.70;73.80
38592;DHT22;24356;48.460;11.450;2023-05-02T13:04:36;18.80;74.10
38592;DHT22;24356;48.460;11.450;2023-05-02T13:07:03;18.80;74.00
38592;DHT22;24356;48.460;11.450;2023-05-02T13:09:28;18.90;74.10
38592;DHT22;24356;48.460;11.450;2023-05-02T13:11:54;19.00;74.50
38592;DHT22;24356;48.460;11.450;2023-05-02T13:14:20;19.20;74.40
38592;DHT22;24356;48.460;11.450;2023-05-02T13:16:47;19.30;74.60
38592;DHT22;24356;48.460;11.450;2023-05-02T13:19:13;19.40;74.40
38592;DHT22;24356;48.460;11.450;2023-05-02T13:21:40;19.50;74.00
38592;DHT22;24356;48.460;11.450;2023-05-02T13:24:44;19.50;73.60
38592;DHT22;24356;48.460;11.450;2023-05-02T13:27:12;19.60;73.70
38592;DHT22;24356;48.460;11.450;2023-05-02T13:29:37;19.60;73.60
38592;DHT22;24356;48.460;11.450;2023-05-02T13:32:03;19.70;73.50
38592;DHT22;24356;48.460;11.450;2023-05-02T13:34:29;19.70;72.90
38592;DHT22;24356;48.460;11.450;2023-05-02T13:36:54;19.70;72.50
38592;DHT22;24356;48.460;11.450;2023-05-02T13:39:22;19.70;73.00
38592;DHT22;24356;48.460;11.450;2023-05-02T13:41:48;19.80;73.60
38592;DHT22;24356;48.460;11.450;2023-05-02T13:44:13;19.90;74.70
38592;DHT22;24356;48.460;11.450;2023-05-02T13:46:39;20.00;75.90
38592;DHT22;24356;48.460;11.450;2023-05-02T13:49:04;20.10;76.00
38592;DHT22;24356;48.460;11.450;2023-05-02T13:51:31;20.30;76.10
38592;DHT22;24356;48.460;11.450;2023-05-02T13:53:57;20.40;76.10
38592;DHT22;24356;48.460;11.450;2023-05-02T13:56:24;20.50;76.40
38592;DHT22;24356;48.460;11.450;2023-05-02T13:58:50;20.60;76.20
38592;DHT22;24356;48.460;11.450;2023-05-02T14:01:15;20.80;77.00
38592;DHT22;24356;48.460;11.450;2023-05-02T14:03:41;21.10;76.80
38592;DHT22;24356;48.460;11.450;2023-05-02T14:06:07;21.10;74.90
38592;DHT22;24356;48.460;11.450;2023-05-02T14:08:32;21.20;73.10
38592;DHT22;24356;48.460;11.450;2023-05-02T14:10:58;21.10;71.90
38592;DHT22;24356;48.460;11.450;2023-05-02T14:13:24;21.00;71.00
38592;DHT22;24356;48.460;11.450;2023-05-02T14:15:49;20.90;70.70
38592;DHT22;24356;48.460;11.450;2023-05-02T14:18:15;20.80;70.70
38592;DHT22;24356;48.460;11.450;2023-05-02T14:20:41;20.60;70.00
38592;DHT22;24356;48.460;11.450;2023-05-02T14:23:07;20.50;70.40
38592;DHT22;24356;48.460;11.450;2023-05-02T14:25:34;20.30;70.10
38592;DHT22;24356;48.460;11.450;2023-05-02T14:28:00;20.10;70.20
38592;DHT22;24356;48.460;11.450;2023-05-02T14:30:27;19.90;70.20
38592;DHT22;24356;48.460;11.450;2023-05-02T14:32:53;19.70;70.30
38592;DHT22;24356;48.460;11.450;2023-05-02T14:35:19;19.50;70.50
38592;DHT22;24356;48.460;11.450;2023-05-02T14:37:45;19.30;70.30
38592;DHT22;24356;48.460;11.450;2023-05-02T14:40:12;19.10;71.30
38592;DHT22;24356;48.460;11.450;2023-05-02T14:42:38;18.90;71.70
38592;DHT22;24356;48.460;11.450;2023-05-02T14:45:05;18.70;71.40
38592;DHT22;24356;48.460;11.450;2023-05-02T14:47:31;18.50;71.90
38592;DHT22;24356;48.460;11.450;2023-05-02T14:49:58;18.40;72.10
38592;DHT22;24356;48.460;11.450;2023-05-02T14:52:23;18.20;72.10
38592;DHT22;24356;48.460;11.450;2023-05-02T14:54:49;18.00;72.60
38592;DHT22;24356;48.460;11.450;2023-05-02T14:57:15;17.80;72.80
38592;DHT22;24356;48.460;11.450;2023-05-02T14:59:40;17.70;73.20
38592;DHT22;24356;48.460;11.450;2023-05-02T15:02:07;17.50;73.40
38592;DHT22;24356;48.460;11.450;2023-05-02T15:04:32;17.40;73.30
38592;DHT22;24356;48.460;11.450;2023-05-02T15:07:01;17.30;74.10
38592;DHT22;24356;48.460;11.450;2023-05-02T15:09:27;17.20;74.20
38592;DHT22;24356;48.460;11.450;2023-05-02T15:11:55;17.10;74.10
38592;DHT22;24356;48.460;11.450;2023-05-02T15:14:21;17.00;74.30
38592;DHT22;24356;48.460;11.450;2023-05-02T15:16:46;16.90;74.30
38592;DHT22;24356;48.460;11.450;2023-05-02T15:19:12;16.70;74.70
38592;DHT22;24356;48.460;11.450;2023-05-02T15:21:38;16.60;74.90
38592;DHT22;24356;48.460;11.450;2023-05-02T15:24:04;16.50;75.30
38592;DHT22;24356;48.460;11.450;2023-05-02T15:26:30;16.40;75.40
38592;DHT22;24356;48.460;11.450;2023-05-02T15:28:56;16.30;75.60
38592;DHT22;24356;48.460;11.450;2023-05-02T15:31:22;16.20;75.60
38592;DHT22;24356;48.460;11.450;2023-05-02T15:33:47;16.10;75.70
38592;DHT22;24356;48.460;11.450;2023-05-02T15:36:13;16.00;75.90
38592;DHT22;24356;48.460;11.450;2023-05-02T15:38:40;15.90;75.90
38592;DHT22;24356;48.460;11.450;2023-05-02T15:41:08;15.80;76.10
38592;DHT22;24356;48.460;11.450;2023-05-02T15:43:34;15.70;76.20
38592;DHT22;24356;48.460;11.450;2023-05-02T15:46:00;15.60;76.30
38592;DHT22;24356;48.460;11.450;2023-05-02T15:48:30;15.60;76.40
38592;DHT22;24356;48.460;11.450;2023-05-02T15:50:58;15.50;76.50
38592;DHT22;24356;48.460;11.450;2023-05-02T15:53:23;15.40;76.80
38592;DHT22;24356;48.460;11.450;2023-05-02T15:55:50;15.30;76.90
38592;DHT22;24356;48.460;11.450;2023-05-02T15:58:16;15.20;77.00
38592;DHT22;24356;48.460;11.450;2023-05-02T16:00:43;15.10;77.10
38592;DHT22;24356;48.460;11.450;2023-05-02T16:03:11;15.00;77.30
38592;DHT22;24356;48.460;11.450;2023-05-02T16:05:38;15.00;77.30
38592;DHT22;24356;48.460;11.450;2023-05-02T16:08:04;14.90;77.40
38592;DHT22;24356;48.460;11.450;2023-05-02T16:10:29;14.80;77.50
38592;DHT22;24356;48.460;11.450;2023-05-02T16:12:55;14.80;77.60
38592;DHT22;24356;48.460;11.450;2023-05-02T16:15:22;14.70;77.60
38592;DHT22;24356;48.460;11.450;2023-05-02T16:17:49;14.60;77.70